sensor_id;sensor_type;location;lat;lon;timestamp;temperature;humidity
12688;DHT22;6408;59.388;17.798;2023-02-18T00:00:34;4.30;99.90
12688;DHT22;6408;59.388;17.798;2023-02-18T00:03:02;4.30;99.90
12688;DHT22;6408;59.388;17.798;2023-02-18T00:05:29;4.30;99.90
12688;DHT22;6408;59.388;17.798;2023-02-18T00:07:57;4.20;99.90
12688;DHT22;6408;59.388;17.798;2023-02-18T00:10:24;4.20;99.90
12688;DHT22;6408;59.388;17.798;2023-02-18T00:12:52;4.20;99.90
12688;DHT22;6408;59.388;17.798;2023-02-18T00:15:21;4.10;99.90
12688;DHT22;6408;59.388;17.798;2023-02-18T00:17:48;4.10;99.90
12688;DHT22;6408;59.388;17.798;2023-02-18T00:20:15;4.10;99.90
12688;DHT22;6408;59.388;17.798;2023-02-18T00:22:43;4.10;99.90
12688;DHT22;6408;59.388;17.798;2023-02-18T00:25:10;4.10;99.90
12688;DHT22;6408;59.388;17.798;2023-02-18T00:27:38;4.00;99.90
12688;DHT22;6408;59.388;17.798;2023-02-18T00:30:06;4.00;99.90
12688;DHT22;6408;59.388;17.798;2023-02-18T00:32:35;4.00;99.90
12688;DHT22;6408;59.388;17.798;2023-02-18T00:35:03;4.00;99.90
12688;DHT22;6408;59.388;17.798;2023-02-18T00:37:30;4.00;99.90
12688;DHT22;6408;59.388;17.798;2023-02-18T00:39:58;4.00;99.90
12688;DHT22;6408;59.388;17.798;2023-02-18T00:42:26;4.00;99.90
12688;DHT22;6408;59.388;17.798;2023-02-18T00:44:53;3.90;99.90
12688;DHT22;6408;59.388;17.798;2023-02-18T00:47:21;3.80;99.90
12688;DHT22;6408;59.388;17.798;2023-02-18T00:49:50;3.80;99.90
12688;DHT22;6408;59.388;17.798;2023-02-18T00:52:17;3.80;99.90
12688;DHT22;6408;59.388;17.798;2023-02-18T00:54:45;3.80;99.90
12688;DHT22;6408;59.388;17.798;2023-02-18T00:57:12;3.70;99.90
12688;DHT22;6408;59.388;17.798;2023-02-18T00:59:39;3.80;99.90
12688;DHT22;6408;59.388;17.798;2023-02-18T01:02:07;3.70;99.90
12688;DHT22;6408;59.388;17.798;2023-02-18T01:04:35;3.60;99.90
12688;DHT22;6408;59.388;17.798;2023-02-18T01:07:04;3.60;99.90
12688;DHT22;6408;59.388;17.798;2023-02-18T01:09:32;3.40;99.90
12688;DHT22;6408;59.388;17.798;2023-02-18T01:11:59;3.40;99.90
12688;DHT22;6408;59.388;17.798;2023-02-18T01:14:27;3.40;99.90
12688;DHT22;6408;59.388;17.798;2023-02-18T01:16:54;3.40;99.90
12688;DHT22;6408;59.388;17.798;2023-02-18T01:19:21;3.30;99.90
12688;DHT22;6408;59.388;17.798;2023-02-18T01:21:49;3.30;99.90
12688;DHT22;6408;59.388;17.798;2023-02-18T01:24:18;3.30;99.90
12688;DHT22;6408;59.388;17.798;2023-02-18T01:26:45;3.20;99.90
12688;DHT22;6408;59.388;17.798;2023-02-18T01:29:13;3.20;99.90
12688;DHT22;6408;59.388;17.798;2023-02-18T01:31:40;3.20;99.90
12688;DHT22;6408;59.388;17.798;2023-02-18T01:34:08;3.10;99.90
12688;DHT22;6408;59.388;17.798;2023-02-18T01:36:35;3.20;99.90
12688;DHT22;6408;59.388;17.798;2023-02-18T01:39:04;3.00;99.90
12688;DHT22;6408;59.388;17.798;2023-02-18T01:41:33;2.90;99.90
12688;DHT22;6408;59.388;17.798;2023-02-18T01:44:13;2.90;99.90
12688;DHT22;6408;59.388;17.798;2023-02-18T01:46:41;2.80;99.90
12688;DHT22;6408;59.388;17.798;2023-02-18T01:49:10;2.70;99.90
12688;DHT22;6408;59.388;17.798;2023-02-18T01:51:42;2.60;99.90
12688;DHT22;6408;59.388;17.798;2023-02-18T01:54:13;2.60;99.90
12688;DHT22;6408;59.388;17.798;2023-02-18T01:56:49;2.60;99.90
12688;DHT22;6408;59.388;17.798;2023-02-18T01:59:20;2.50;99.90
12688;DHT22;6408;59.388;17.798;2023-02-18T02:01:49;2.40;99.90
12688;DHT22;6408;59.388;17.798;2023-02-18T02:04:17;2.50;99.90
12688;DHT22;6408;59.388;17.798;2023-02-18T02:06:45;2.50;99.90
12688;DHT22;6408;59.388;17.798;2023-02-18T02:09:15;2.40;99.90
12688;DHT22;6408;59.388;17.798;2023-02-18T02:12:01;2.40;99.90
12688;DHT22;6408;59.388;17.798;2023-02-18T02:14:47;2.30;99.90
12688;DHT22;6408;59.388;17.798;2023-02-18T02:17:24;2.20;99.90
12688;DHT22;6408;59.388;17.798;2023-02-18T02:30:11;2.00;99.90
12688;DHT22;6408;59.388;17.798;2023-02-18T02:33:08;2.10;99.90
12688;DHT22;6408;59.388;17.798;2023-02-18T02:35:43;2.10;99.90
12688;DHT22;6408;59.388;17.798;2023-02-18T02:38:18;2.10;99.90
12688;DHT22;6408;59.388;17.798;2023-02-18T02:40:54;2.20;99.90
12688;DHT22;6408;59.388;17.798;2023-02-18T02:43:29;2.10;99.90
12688;DHT22;6408;59.388;17.798;2023-02-18T02:46:02;2.20;99.90
12688;DHT22;6408;59.388;17.798;2023-02-18T02:48:37;2.20;99.90
12688;DHT22;6408;59.388;17.798;2023-02-18T02:51:14;2.20;99.90
12688;DHT22;6408;59.388;17.798;2023-02-18T02:53:42;2.20;99.90
12688;DHT22;6408;59.388;17.798;2023-02-18T02:56:16;2.20;99.90
12688;DHT22;6408;59.388;17.798;2023-02-18T02:58:44;2.10;99.90
12688;DHT22;6408;59.388;17.798;2023-02-18T03:01:20;2.20;99.90
12688;DHT22;6408;59.388;17.798;2023-02-18T03:04:08;2.30;99.90
12688;DHT22;6408;59.388;17.798;2023-02-18T03:06:53;2.20;99.90
12688;DHT22;6408;59.388;17.798;2023-02-18T03:09:31;2.20;99.90
12688;DHT22;6408;59.388;17.798;2023-02-18T03:12:06;2.20;99.90
12688;DHT22;6408;59.388;17.798;2023-02-18T03:14:42;2.10;99.90
12688;DHT22;6408;59.388;17.798;2023-02-18T03:17:16;2.20;99.90
12688;DHT22;6408;59.388;17.798;2023-02-18T03:19:54;2.10;99.90
12688;DHT22;6408;59.388;17.798;2023-02-18T03:22:29;2.10;99.90
12688;DHT22;6408;59.388;17.798;2023-02-18T03:24:57;2.10;99.90
12688;DHT22;6408;59.388;17.798;2023-02-18T03:27:29;2.10;99.90
12688;DHT22;6408;59.388;17.798;2023-02-18T03:30:04;2.10;99.90
12688;DHT22;6408;59.388;17.798;2023-02-18T03:32:33;2.10;99.90
12688;DHT22;6408;59.388;17.798;2023-02-18T03:35:07;2.10;99.90
12688;DHT22;6408;59.388;17.798;2023-02-18T03:37:41;2.10;99.90
12688;DHT22;6408;59.388;17.798;2023-02-18T03:40:09;2.10;99.90
12688;DHT22;6408;59.388;17.798;2023-02-18T03:42:40;2.00;99.90
12688;DHT22;6408;59.388;17.798;2023-02-18T03:45:07;2.00;99.90
12688;DHT22;6408;59.388;17.798;2023-02-18T03:47:35;2.00;99.90
12688;DHT22;6408;59.388;17.798;2023-02-18T03:50:03;2.00;99.90
12688;DHT22;6408;59.388;17.798;2023-02-18T03:52:32;1.90;99.90
12688;DHT22;6408;59.388;17.798;2023-02-18T03:55:03;2.00;99.90
12688;DHT22;6408;59.388;17.798;2023-02-18T03:57:31;2.00;99.90
12688;DHT22;6408;59.388;17.798;2023-02-18T03:59:58;2.00;99.90
12688;DHT22;6408;59.388;17.798;2023-02-18T04:02:26;2.00;99.90
12688;DHT22;6408;59.388;17.798;2023-02-18T04:04:54;1.90;99.90
12688;DHT22;6408;59.388;17.798;2023-02-18T04:07:21;1.90;99.90
12688;DHT22;6408;59.388;17.798;2023-02-18T04:09:49;1.80;99.90
12688;DHT22;6408;59.388;17.798;2023-02-18T04:12:19;1.90;99.90
12688;DHT22;6408;59.388;17.798;2023-02-18T04:14:46;1.90;99.90
12688;DHT22;6408;59.388;17.798;2023-02-18T04:17:14;1.80;99.90
12688;DHT22;6408;59.388;17.798;2023-02-18T04:19:42;1.80;99.90
12688;DHT22;6408;59.388;17.798;2023-02-18T04:22:09;1.80;99.90
12688;DHT22;6408;59.388;17.798;2023-02-18T04:24:37;1.80;99.90
12688;DHT22;6408;59.388;17.798;2023-02-18T04:27:04;1.90;99.90
12688;DHT22;6408;59.388;17.798;2023-02-18T04:29:34;1.90;99.90
12688;DHT22;6408;59.388;17.798;2023-02-18T04:32:01;1.80;99.90
12688;DHT22;6408;59.388;17.798;2023-02-18T04:34:29;1.80;99.90
12688;DHT22;6408;59.388;17.798;2023-02-18T04:36:56;1.90;99.90
12688;DHT22;6408;59.388;17.798;2023-02-18T04:39:24;1.90;99.90
12688;DHT22;6408;59.388;17.798;2023-02-18T04:41:51;1.90;99.90
12688;DHT22;6408;59.388;17.798;2023-02-18T04:44:19;1.80;99.90
12688;DHT22;6408;59.388;17.798;2023-02-18T04:46:48;1.80;99.90
12688;DHT22;6408;59.388;17.798;2023-02-18T04:49:16;1.80;99.90
12688;DHT22;6408;59.388;17.798;2023-02-18T04:51:43;1.80;99.90
12688;DHT22;6408;59.388;17.798;2023-02-18T04:54:11;1.80;99.90
12688;DHT22;6408;59.388;17.798;2023-02-18T04:56:38;1.80;99.90
12688;DHT22;6408;59.388;17.798;2023-02-18T04:59:06;1.80;99.90
12688;DHT22;6408;59.388;17.798;2023-02-18T05:01:34;1.80;99.90
12688;DHT22;6408;59.388;17.798;2023-02-18T05:04:03;1.80;99.90
12688;DHT22;6408;59.388;17.798;2023-02-18T05:06:31;1.80;99.90
12688;DHT22;6408;59.388;17.798;2023-02-18T05:08:58;1.80;99.90
12688;DHT22;6408;59.388;17.798;2023-02-18T05:11:26;1.80;99.90
12688;DHT22;6408;59.388;17.798;2023-02-18T05:13:54;1.80;99.90
12688;DHT22;6408;59.388;17.798;2023-02-18T05:16:21;1.80;99.90
12688;DHT22;6408;59.388;17.798;2023-02-18T05:18:49;1.80;99.90
12688;DHT22;6408;59.388;17.798;2023-02-18T05:21:18;1.80;99.90
12688;DHT22;6408;59.388;17.798;2023-02-18T05:23:46;1.90;99.90
12688;DHT22;6408;59.388;17.798;2023-02-18T05:26:13;1.90;99.90
12688;DHT22;6408;59.388;17.798;2023-02-18T05:28:41;1.90;99.90
12688;DHT22;6408;59.388;17.798;2023-02-18T05:31:09;1.90;99.90
12688;DHT22;6408;59.388;17.798;2023-02-18T05:33:36;1.90;99.90
12688;DHT22;6408;59.388;17.798;2023-02-18T05:36:05;1.90;99.90
12688;DHT22;6408;59.388;17.798;2023-02-18T05:38:34;1.90;99.90
12688;DHT22;6408;59.388;17.798;2023-02-18T05:41:02;1.90;99.90
12688;DHT22;6408;59.388;17.798;2023-02-18T05:43:30;1.90;99.90
12688;DHT22;6408;59.388;17.798;2023-02-18T05:46:17;1.80;99.90
12688;DHT22;6408;59.388;17.798;2023-02-18T05:48:45;1.80;99.90
12688;DHT22;6408;59.388;17.798;2023-02-18T05:51:12;1.80;99.90
12688;DHT22;6408;59.388;17.798;2023-02-18T05:53:42;1.90;99.90
12688;DHT22;6408;59.388;17.798;2023-02-18T05:56:09;1.90;99.90
12688;DHT22;6408;59.388;17.798;2023-02-18T05:58:37;1.90;99.90
12688;DHT22;6408;59.388;17.798;2023-02-18T06:01:04;1.90;99.90
12688;DHT22;6408;59.388;17.798;2023-02-18T06:03:32;1.90;99.90
12688;DHT22;6408;59.388;17.798;2023-02-18T06:06:00;1.90;99.90
12688;DHT22;6408;59.388;17.798;2023-02-18T06:08:27;1.90;99.90
12688;DHT22;6408;59.388;17.798;2023-02-18T06:10:57;1.90;99.90
12688;DHT22;6408;59.388;17.798;2023-02-18T06:13:24;2.00;99.90
12688;DHT22;6408;59.388;17.798;2023-02-18T06:15:52;2.00;99.90
12688;DHT22;6408;59.388;17.798;2023-02-18T06:18:19;2.00;99.90
12688;DHT22;6408;59.388;17.798;2023-02-18T06:20:48;2.00;99.90
12688;DHT22;6408;59.388;17.798;2023-02-18T06:23:15;1.90;99.90
12688;DHT22;6408;59.388;17.798;2023-02-18T06:25:43;1.90;99.90
12688;DHT22;6408;59.388;17.798;2023-02-18T06:28:12;1.90;99.90
12688;DHT22;6408;59.388;17.798;2023-02-18T06:30:39;1.90;99.90
12688;DHT22;6408;59.388;17.798;2023-02-18T06:33:07;1.90;99.90
12688;DHT22;6408;59.388;17.798;2023-02-18T06:35:35;1.90;99.90
12688;DHT22;6408;59.388;17.798;2023-02-18T06:38:02;1.90;99.90
12688;DHT22;6408;59.388;17.798;2023-02-18T06:40:30;1.90;99.90
12688;DHT22;6408;59.388;17.798;2023-02-18T06:42:58;1.90;99.90
12688;DHT22;6408;59.388;17.798;2023-02-18T06:45:27;1.90;99.90
12688;DHT22;6408;59.388;17.798;2023-02-18T06:47:54;1.90;99.90
12688;DHT22;6408;59.388;17.798;2023-02-18T06:50:22;1.90;99.90
12688;DHT22;6408;59.388;17.798;2023-02-18T06:52:49;1.90;99.90
12688;DHT22;6408;59.388;17.798;2023-02-18T06:55:17;1.90;99.90
12688;DHT22;6408;59.388;17.798;2023-02-18T06:57:45;2.00;99.90
12688;DHT22;6408;59.388;17.798;2023-02-18T07:00:13;2.00;99.90
12688;DHT22;6408;59.388;17.798;2023-02-18T07:02:42;1.90;99.90
12688;DHT22;6408;59.388;17.798;2023-02-18T07:05:10;1.90;99.90
12688;DHT22;6408;59.388;17.798;2023-02-18T07:07:38;2.00;99.90
12688;DHT22;6408;59.388;17.798;2023-02-18T07:10:06;1.90;99.90
12688;DHT22;6408;59.388;17.798;2023-02-18T07:12:34;2.00;99.90
12688;DHT22;6408;59.388;17.798;2023-02-18T07:15:02;2.00;99.90
12688;DHT22;6408;59.388;17.798;2023-02-18T07:17:30;2.00;99.90
12688;DHT22;6408;59.388;17.798;2023-02-18T07:19:59;2.00;99.90
12688;DHT22;6408;59.388;17.798;2023-02-18T07:22:27;2.00;99.90
12688;DHT22;6408;59.388;17.798;2023-02-18T07:24:55;2.00;99.90
12688;DHT22;6408;59.388;17.798;2023-02-18T07:27:22;2.10;99.90
12688;DHT22;6408;59.388;17.798;2023-02-18T07:29:50;2.10;99.90
12688;DHT22;6408;59.388;17.798;2023-02-18T07:32:18;2.00;99.90
12688;DHT22;6408;59.388;17.798;2023-02-18T07:34:46;2.00;99.90
12688;DHT22;6408;59.388;17.798;2023-02-18T07:37:15;2.00;99.90
12688;DHT22;6408;59.388;17.798;2023-02-18T07:39:43;2.00;99.90
12688;DHT22;6408;59.388;17.798;2023-02-18T07:42:11;2.00;99.90
12688;DHT22;6408;59.388;17.798;2023-02-18T07:44:40;2.00;99.90
12688;DHT22;6408;59.388;17.798;2023-02-18T07:47:12;2.00;99.90
12688;DHT22;6408;59.388;17.798;2023-02-18T07:49:40;2.00;99.90
12688;DHT22;6408;59.388;17.798;2023-02-18T07:52:08;2.00;99.90
12688;DHT22;6408;59.388;17.798;2023-02-18T07:54:37;2.10;99.90
12688;DHT22;6408;59.388;17.798;2023-02-18T07:57:05;2.10;99.90
12688;DHT22;6408;59.388;17.798;2023-02-18T07:59:32;2.20;99.90
12688;DHT22;6408;59.388;17.798;2023-02-18T08:02:00;2.10;99.90
12688;DHT22;6408;59.388;17.798;2023-02-18T08:04:28;2.10;99.90
12688;DHT22;6408;59.388;17.798;2023-02-18T08:06:55;2.10;99.90
12688;DHT22;6408;59.388;17.798;2023-02-18T08:09:23;2.20;99.90
12688;DHT22;6408;59.388;17.798;2023-02-18T08:11:52;2.20;99.90
12688;DHT22;6408;59.388;17.798;2023-02-18T08:14:20;2.20;99.90
12688;DHT22;6408;59.388;17.798;2023-02-18T08:16:47;2.20;99.90
12688;DHT22;6408;59.388;17.798;2023-02-18T08:19:15;2.30;99.90
12688;DHT22;6408;59.388;17.798;2023-02-18T08:21:42;2.30;99.90
12688;DHT22;6408;59.388;17.798;2023-02-18T08:24:10;2.30;99.90
12688;DHT22;6408;59.388;17.798;2023-02-18T08:26:38;2.20;99.90
12688;DHT22;6408;59.388;17.798;2023-02-18T08:29:07;2.30;99.90
12688;DHT22;6408;59.388;17.798;2023-02-18T08:31:35;2.30;99.90
12688;DHT22;6408;59.388;17.798;2023-02-18T08:34:02;2.30;99.90
12688;DHT22;6408;59.388;17.798;2023-02-18T08:36:30;2.30;99.90
12688;DHT22;6408;59.388;17.798;2023-02-18T08:38:58;2.30;99.90
12688;DHT22;6408;59.388;17.798;2023-02-18T08:41:26;2.40;99.90
12688;DHT22;6408;59.388;17.798;2023-02-18T08:43:53;2.40;99.90
12688;DHT22;6408;59.388;17.798;2023-02-18T08:46:23;2.50;99.90
12688;DHT22;6408;59.388;17.798;2023-02-18T08:48:51;2.50;99.90
12688;DHT22;6408;59.388;17.798;2023-02-18T08:51:20;2.50;99.90
12688;DHT22;6408;59.388;17.798;2023-02-18T08:53:48;2.50;99.90
12688;DHT22;6408;59.388;17.798;2023-02-18T08:56:16;2.50;99.90
12688;DHT22;6408;59.388;17.798;2023-02-18T08:58:44;2.50;99.90
12688;DHT22;6408;59.388;17.798;2023-02-18T09:01:12;2.50;99.90
12688;DHT22;6408;59.388;17.798;2023-02-18T09:03:41;2.60;99.90
12688;DHT22;6408;59.388;17.798;2023-02-18T09:06:09;2.70;99.90
12688;DHT22;6408;59.388;17.798;2023-02-18T09:08:37;2.80;99.90
12688;DHT22;6408;59.388;17.798;2023-02-18T09:11:04;2.80;99.90
12688;DHT22;6408;59.388;17.798;2023-02-18T09:13:33;2.80;99.90
12688;DHT22;6408;59.388;17.798;2023-02-18T09:16:02;2.70;99.90
12688;DHT22;6408;59.388;17.798;2023-02-18T09:18:31;2.70;99.90
12688;DHT22;6408;59.388;17.798;2023-02-18T09:21:04;2.70;99.90
12688;DHT22;6408;59.388;17.798;2023-02-18T09:23:33;2.70;99.90
12688;DHT22;6408;59.388;17.798;2023-02-18T09:26:04;2.80;99.90
12688;DHT22;6408;59.388;17.798;2023-02-18T09:28:32;2.80;99.90
12688;DHT22;6408;59.388;17.798;2023-02-18T09:31:04;2.80;99.90
12688;DHT22;6408;59.388;17.798;2023-02-18T09:33:34;2.80;99.90
12688;DHT22;6408;59.388;17.798;2023-02-18T09:36:05;2.90;99.90
12688;DHT22;6408;59.388;17.798;2023-02-18T09:38:32;2.90;99.90
12688;DHT22;6408;59.388;17.798;2023-02-18T09:41:03;2.90;99.90
12688;DHT22;6408;59.388;17.798;2023-02-18T09:43:33;2.90;99.90
12688;DHT22;6408;59.388;17.798;2023-02-18T09:46:04;3.00;99.90
12688;DHT22;6408;59.388;17.798;2023-02-18T09:48:35;3.10;99.90
12688;DHT22;6408;59.388;17.798;2023-02-18T09:51:06;3.00;99.90
12688;DHT22;6408;59.388;17.798;2023-02-18T09:53:36;3.10;99.90
12688;DHT22;6408;59.388;17.798;2023-02-18T09:56:05;3.10;99.90
12688;DHT22;6408;59.388;17.798;2023-02-18T09:58:33;3.20;99.90
12688;DHT22;6408;59.388;17.798;2023-02-18T10:01:05;3.20;99.90
12688;DHT22;6408;59.388;17.798;2023-02-18T10:03:37;3.10;99.90
12688;DHT22;6408;59.388;17.798;2023-02-18T10:06:10;3.20;99.90
12688;DHT22;6408;59.388;17.798;2023-02-18T10:08:41;3.30;99.90
12688;DHT22;6408;59.388;17.798;2023-02-18T10:11:12;3.30;99.90
12688;DHT22;6408;59.388;17.798;2023-02-18T10:13:42;3.30;99.90
12688;DHT22;6408;59.388;17.798;2023-02-18T10:16:16;3.30;99.90
12688;DHT22;6408;59.388;17.798;2023-02-18T10:18:45;3.30;99.90
12688;DHT22;6408;59.388;17.798;2023-02-18T10:21:19;3.30;99.90
12688;DHT22;6408;59.388;17.798;2023-02-18T10:23:54;3.40;99.90
12688;DHT22;6408;59.388;17.798;2023-02-18T10:26:24;3.30;99.90
12688;DHT22;6408;59.388;17.798;2023-02-18T10:28:52;3.40;99.90
12688;DHT22;6408;59.388;17.798;2023-02-18T10:31:23;3.40;99.90
12688;DHT22;6408;59.388;17.798;2023-02-18T10:33:58;3.50;99.90
12688;DHT22;6408;59.388;17.798;2023-02-18T10:36:34;3.50;99.90
12688;DHT22;6408;59.388;17.798;2023-02-18T10:41:56;3.60;99.90
12688;DHT22;6408;59.388;17.798;2023-02-18T10:44:33;3.60;99.90
12688;DHT22;6408;59.388;17.798;2023-02-18T10:47:12;3.80;99.90
12688;DHT22;6408;59.388;17.798;2023-02-18T10:49:56;4.10;99.90
12688;DHT22;6408;59.388;17.798;2023-02-18T10:52:28;4.40;99.90
12688;DHT22;6408;59.388;17.798;2023-02-18T10:55:01;4.50;99.90
12688;DHT22;6408;59.388;17.798;2023-02-18T10:57:30;4.40;99.90
12688;DHT22;6408;59.388;17.798;2023-02-18T11:00:02;4.20;99.90
12688;DHT22;6408;59.388;17.798;2023-02-18T11:02:37;4.30;99.90
12688;DHT22;6408;59.388;17.798;2023-02-18T11:05:17;4.20;99.90
12688;DHT22;6408;59.388;17.798;2023-02-18T11:07:50;4.20;99.90
12688;DHT22;6408;59.388;17.798;2023-02-18T11:10:22;4.10;99.90
12688;DHT22;6408;59.388;17.798;2023-02-18T11:12:54;4.30;99.90
12688;DHT22;6408;59.388;17.798;2023-02-18T11:15:24;4.30;99.90
12688;DHT22;6408;59.388;17.798;2023-02-18T11:17:53;4.30;99.90
12688;DHT22;6408;59.388;17.798;2023-02-18T11:20:29;4.20;99.90
12688;DHT22;6408;59.388;17.798;2023-02-18T11:23:16;4.10;99.90
12688;DHT22;6408;59.388;17.798;2023-02-18T11:25:54;4.10;99.90
12688;DHT22;6408;59.388;17.798;2023-02-18T11:28:38;4.10;99.90
12688;DHT22;6408;59.388;17.798;2023-02-18T11:31:07;4.10;99.90
12688;DHT22;6408;59.388;17.798;2023-02-18T11:33:38;4.10;99.90
12688;DHT22;6408;59.388;17.798;2023-02-18T11:36:16;4.00;99.90
12688;DHT22;6408;59.388;17.798;2023-02-18T11:38:51;4.10;99.90
12688;DHT22;6408;59.388;17.798;2023-02-18T11:41:27;4.20;99.90
12688;DHT22;6408;59.388;17.798;2023-02-18T11:43:56;4.30;99.90
12688;DHT22;6408;59.388;17.798;2023-02-18T11:46:26;5.00;99.90
12688;DHT22;6408;59.388;17.798;2023-02-18T11:48:54;5.20;99.90
12688;DHT22;6408;59.388;17.798;2023-02-18T11:51:25;5.40;99.90
12688;DHT22;6408;59.388;17.798;2023-02-18T11:54:01;5.30;99.90
12688;DHT22;6408;59.388;17.798;2023-02-18T11:56:32;5.10;99.90
12688;DHT22;6408;59.388;17.798;2023-02-18T11:59:01;4.80;99.90
12688;DHT22;6408;59.388;17.798;2023-02-18T12:01:38;4.80;99.90
12688;DHT22;6408;59.388;17.798;2023-02-18T12:04:11;4.80;99.90
12688;DHT22;6408;59.388;17.798;2023-02-18T12:06:45;4.90;99.90
12688;DHT22;6408;59.388;17.798;2023-02-18T12:09:22;5.00;99.90
12688;DHT22;6408;59.388;17.798;2023-02-18T12:11:54;5.10;99.90
12688;DHT22;6408;59.388;17.798;2023-02-18T12:14:23;5.40;99.90
12688;DHT22;6408;59.388;17.798;2023-02-18T12:17:19;5.60;99.90
12688;DHT22;6408;59.388;17.798;2023-02-18T12:20:17;5.60;99.90
12688;DHT22;6408;59.388;17.798;2023-02-18T12:22:50;5.80;99.90
12688;DHT22;6408;59.388;17.798;2023-02-18T12:25:29;5.50;99.90
12688;DHT22;6408;59.388;17.798;2023-02-18T12:28:13;5.60;99.90
12688;DHT22;6408;59.388;17.798;2023-02-18T12:31:16;5.40;99.90
12688;DHT22;6408;59.388;17.798;2023-02-18T12:33:56;5.20;99.90
12688;DHT22;6408;59.388;17.798;2023-02-18T12:36:32;5.20;99.90
12688;DHT22;6408;59.388;17.798;2023-02-18T12:39:10;5.10;99.90
12688;DHT22;6408;59.388;17.798;2023-02-18T12:41:52;4.90;99.90
12688;DHT22;6408;59.388;17.798;2023-02-18T12:44:35;4.80;99.90
12688;DHT22;6408;59.388;17.798;2023-02-18T12:53:04;4.80;99.90
12688;DHT22;6408;59.388;17.798;2023-02-18T12:55:46;4.80;99.90
12688;DHT22;6408;59.388;17.798;2023-02-18T12:58:26;4.90;99.90
12688;DHT22;6408;59.388;17.798;2023-02-18T13:01:09;5.10;99.90
12688;DHT22;6408;59.388;17.798;2023-02-18T13:12:40;6.00;99.90
12688;DHT22;6408;59.388;17.798;2023-02-18T13:15:16;5.60;99.90
12688;DHT22;6408;59.388;17.798;2023-02-18T13:17:46;5.40;99.90
12688;DHT22;6408;59.388;17.798;2023-02-18T13:20:19;5.30;99.90
12688;DHT22;6408;59.388;17.798;2023-02-18T13:22:48;5.30;99.90
12688;DHT22;6408;59.388;17.798;2023-02-18T13:25:18;5.10;99.90
12688;DHT22;6408;59.388;17.798;2023-02-18T13:27:52;4.90;99.90
12688;DHT22;6408;59.388;17.798;2023-02-18T13:30:26;4.90;99.90
12688;DHT22;6408;59.388;17.798;2023-02-18T13:33:04;5.00;99.90
12688;DHT22;6408;59.388;17.798;2023-02-18T13:35:38;5.00;99.90
12688;DHT22;6408;59.388;17.798;2023-02-18T13:38:30;4.90;99.90
12688;DHT22;6408;59.388;17.798;2023-02-18T13:41:02;4.80;99.90
12688;DHT22;6408;59.388;17.798;2023-02-18T13:43:32;4.80;99.90
12688;DHT22;6408;59.388;17.798;2023-02-18T13:46:12;4.70;99.90
12688;DHT22;6408;59.388;17.798;2023-02-18T13:48:46;4.70;99.90
12688;DHT22;6408;59.388;17.798;2023-02-18T13:51:16;4.70;99.90
12688;DHT22;6408;59.388;17.798;2023-02-18T13:54:00;4.70;99.90
12688;DHT22;6408;59.388;17.798;2023-02-18T13:56:30;4.60;99.90
12688;DHT22;6408;59.388;17.798;2023-02-18T13:59:01;4.60;99.90
12688;DHT22;6408;59.388;17.798;2023-02-18T14:01:50;4.70;99.90
12688;DHT22;6408;59.388;17.798;2023-02-18T14:04:50;4.60;99.90
12688;DHT22;6408;59.388;17.798;2023-02-18T14:07:45;4.60;99.90
12688;DHT22;6408;59.388;17.798;2023-02-18T14:10:27;4.50;99.90
12688;DHT22;6408;59.388;17.798;2023-02-18T14:13:22;4.50;99.90
12688;DHT22;6408;59.388;17.798;2023-02-18T14:15:55;4.50;99.90
12688;DHT22;6408;59.388;17.798;2023-02-18T14:19:00;4.50;99.90
12688;DHT22;6408;59.388;17.798;2023-02-18T14:21:41;4.50;99.90
12688;DHT22;6408;59.388;17.798;2023-02-18T14:24:10;4.50;99.90
12688;DHT22;6408;59.388;17.798;2023-02-18T14:26:42;4.50;99.90
12688;DHT22;6408;59.388;17.798;2023-02-18T14:29:21;4.50;99.90
12688;DHT22;6408;59.388;17.798;2023-02-18T14:31:56;4.50;99.90
12688;DHT22;6408;59.388;17.798;2023-02-18T14:43:48;4.50;99.90
12688;DHT22;6408;59.388;17.798;2023-02-18T14:46:28;4.40;99.90
12688;DHT22;6408;59.388;17.798;2023-02-18T14:49:12;4.50;99.90
12688;DHT22;6408;59.388;17.798;2023-02-18T14:51:45;4.50;99.90
12688;DHT22;6408;59.388;17.798;2023-02-18T14:54:17;4.40;99.90
12688;DHT22;6408;59.388;17.798;2023-02-18T14:56:53;4.40;99.90
12688;DHT22;6408;59.388;17.798;2023-02-18T14:59:23;4.40;99.90
12688;DHT22;6408;59.388;17.798;2023-02-18T15:01:53;4.30;99.90
12688;DHT22;6408;59.388;17.798;2023-02-18T15:04:23;4.30;99.90
12688;DHT22;6408;59.388;17.798;2023-02-18T15:06:58;4.20;99.90
12688;DHT22;6408;59.388;17.798;2023-02-18T15:09:26;4.10;99.90
12688;DHT22;6408;59.388;17.798;2023-02-18T15:11:59;4.10;99.90
12688;DHT22;6408;59.388;17.798;2023-02-18T15:14:31;4.10;99.90
12688;DHT22;6408;59.388;17.798;2023-02-18T15:17:00;4.10;99.90
12688;DHT22;6408;59.388;17.798;2023-02-18T15:19:32;4.10;99.90
12688;DHT22;6408;59.388;17.798;2023-02-18T15:22:02;4.10;99.90
12688;DHT22;6408;59.388;17.798;2023-02-18T15:24:31;4.00;99.90
12688;DHT22;6408;59.388;17.798;2023-02-18T15:27:05;3.90;99.90
12688;DHT22;6408;59.388;17.798;2023-02-18T15:29:36;3.80;99.90
12688;DHT22;6408;59.388;17.798;2023-02-18T15:32:14;3.80;99.90
12688;DHT22;6408;59.388;17.798;2023-02-18T15:34:42;3.70;99.90
12688;DHT22;6408;59.388;17.798;2023-02-18T15:37:12;3.70;99.90
12688;DHT22;6408;59.388;17.798;2023-02-18T15:39:40;3.70;99.90
12688;DHT22;6408;59.388;17.798;2023-02-18T15:42:16;3.60;99.90
12688;DHT22;6408;59.388;17.798;2023-02-18T15:44:47;3.50;99.90
12688;DHT22;6408;59.388;17.798;2023-02-18T15:47:15;3.60;99.90
12688;DHT22;6408;59.388;17.798;2023-02-18T15:49:46;3.60;99.90
12688;DHT22;6408;59.388;17.798;2023-02-18T15:52:15;3.50;99.90
12688;DHT22;6408;59.388;17.798;2023-02-18T15:54:42;3.50;99.90
12688;DHT22;6408;59.388;17.798;2023-02-18T15:57:15;3.40;99.90
12688;DHT22;6408;59.388;17.798;2023-02-18T15:59:44;3.40;99.90
12688;DHT22;6408;59.388;17.798;2023-02-18T16:02:17;3.30;99.90
12688;DHT22;6408;59.388;17.798;2023-02-18T16:04:52;3.40;99.90
12688;DHT22;6408;59.388;17.798;2023-02-18T16:07:23;3.30;99.90
12688;DHT22;6408;59.388;17.798;2023-02-18T16:10:17;3.30;99.90
12688;DHT22;6408;59.388;17.798;2023-02-18T16:12:49;3.20;99.90
12688;DHT22;6408;59.388;17.798;2023-02-18T16:15:24;3.10;99.90
12688;DHT22;6408;59.388;17.798;2023-02-18T16:17:52;3.10;99.90
12688;DHT22;6408;59.388;17.798;2023-02-18T16:20:28;3.00;99.90
12688;DHT22;6408;59.388;17.798;2023-02-18T16:23:00;3.00;99.90
12688;DHT22;6408;59.388;17.798;2023-02-18T16:25:39;3.10;99.90
12688;DHT22;6408;59.388;17.798;2023-02-18T16:28:13;3.10;99.90
12688;DHT22;6408;59.388;17.798;2023-02-18T16:30:42;3.10;99.90
12688;DHT22;6408;59.388;17.798;2023-02-18T16:33:11;3.10;99.90
12688;DHT22;6408;59.388;17.798;2023-02-18T16:35:38;3.10;99.90
12688;DHT22;6408;59.388;17.798;2023-02-18T16:38:06;3.10;99.90
12688;DHT22;6408;59.388;17.798;2023-02-18T16:40:35;3.00;99.90
12688;DHT22;6408;59.388;17.798;2023-02-18T16:43:10;3.00;99.90
12688;DHT22;6408;59.388;17.798;2023-02-18T16:45:41;3.00;99.90
12688;DHT22;6408;59.388;17.798;2023-02-18T16:48:16;3.00;99.90